Time;durP1;ratioP1;P1;durP2;ratioP2;P2;SDS_P1;SDS_P2;PMS_P1;PMS_P2;Temp;Humidity;BMP_temperature;BMP_pressure;BME280_temperature;BME280_humidity;BME280_pressure;Samples;Min_cycle;Max_cycle;Signal;HPM_P1;HPM_P2
2021/04/03 00:01:53;;;;;;;12.93;1.83;;;6.70;76.70;;;;;;5077794;28;20390;-73
2021/04/03 00:04:19;;;;;;;10.50;1.67;;;6.70;76.60;;;;;;5077414;28;20035;-74
2021/04/03 00:06:45;;;;;;;13.87;2.17;;;6.70;76.60;;;;;;5095500;28;20090;-74
2021/04/03 00:09:10;;;;;;;12.50;1.63;;;6.80;76.60;;;;;;5060514;28;20387;-73
2021/04/03 00:11:36;;;;;;;15.47;1.63;;;6.60;76.50;;;;;;5095427;28;20028;-74
2021/04/03 00:14:01;;;;;;;17.30;1.93;;;6.60;76.50;;;;;;5077111;28;20372;-76
2021/04/03 00:16:27;;;;;;;14.27;2.13;;;6.60;76.60;;;;;;5043834;28;20132;-76
2021/04/03 00:18:52;;;;;;;12.50;1.60;;;6.60;76.60;;;;;;5060135;28;20059;-77
2021/04/03 00:21:18;;;;;;;17.43;2.10;;;6.60;76.50;;;;;;5076826;28;20051;-76
2021/04/03 00:23:44;;;;;;;14.43;1.93;;;6.60;76.60;;;;;;5077046;28;20028;-75
2021/04/03 00:26:10;;;;;;;17.10;2.33;;;6.70;76.60;;;;;;5095149;28;20031;-75
2021/04/03 00:28:36;;;;;;;15.53;1.93;;;6.60;76.60;;;;;;5076608;28;20109;-75
2021/04/03 00:31:01;;;;;;;12.07;1.80;;;6.60;76.60;;;;;;5095163;28;20082;-75
2021/04/03 00:33:27;;;;;;;14.40;1.97;;;6.60;76.60;;;;;;5060366;28;20043;-75
2021/04/03 00:35:53;;;;;;;13.30;1.83;;;6.60;76.50;;;;;;5076633;28;20054;-75
2021/04/03 00:38:18;;;;;;;12.60;2.30;;;6.70;76.50;;;;;;5077142;28;20103;-77
2021/04/03 00:40:48;;;;;;;17.10;2.90;;;6.60;76.50;;;;;;5076940;28;20483;-75
2021/04/03 00:43:19;;;;;;;12.57;1.57;;;6.60;76.40;;;;;;5094658;28;20052;-77
2021/04/03 00:45:45;;;;;;;15.27;1.80;;;6.70;76.50;;;;;;5094888;28;20474;-76
2021/04/03 00:48:12;;;;;;;14.80;1.87;;;6.70;76.50;;;;;;5076573;28;20028;-75
2021/04/03 00:50:43;;;;;;;10.37;1.50;;;6.70;77.10;;;;;;5094709;28;20103;-76
2021/04/03 00:53:11;;;;;;;15.93;2.00;;;6.70;76.50;;;;;;5094401;28;20036;-77
2021/04/03 00:55:37;;;;;;;10.97;1.47;;;6.70;76.40;;;;;;5076893;28;20085;-76
2021/04/03 00:58:05;;;;;;;10.27;1.90;;;6.70;76.60;;;;;;5076192;28;20032;-76
2021/04/03 01:00:30;;;;;;;11.00;1.50;;;6.70;76.40;;;;;;5094334;28;20016;-76
2021/04/03 01:02:56;;;;;;;15.73;1.60;;;6.70;76.40;;;;;;5094454;28;20392;-75
2021/04/03 01:05:26;;;;;;;10.47;1.50;;;6.70;76.30;;;;;;5076401;28;20081;-75
2021/04/03 01:07:52;;;;;;;13.10;1.63;;;6.70;76.30;;;;;;5093941;28;20052;-76
2021/04/03 01:10:21;;;;;;;13.80;2.17;;;6.70;76.20;;;;;;5093738;28;20043;-76
2021/04/03 01:12:52;;;;;;;10.43;1.67;;;6.70;76.10;;;;;;5093628;28;20028;-76
2021/04/03 01:15:25;;;;;;;18.93;1.83;;;6.70;76.10;;;;;;5075983;28;20028;-75
2021/04/03 01:18:10;;;;;;;14.70;1.93;;;6.70;76.20;;;;;;5094001;28;20087;-75
2021/04/03 01:20:50;;;;;;;12.43;1.40;;;6.70;76.10;;;;;;5094190;28;20035;-76
2021/04/03 01:23:43;;;;;;;9.33;1.30;;;6.70;76.20;;;;;;5093906;28;20020;-76
2021/04/03 01:26:30;;;;;;;12.77;1.50;;;6.70;76.20;;;;;;5094273;28;20024;-75
2021/04/03 01:29:29;;;;;;;19.77;1.70;;;6.70;76.40;;;;;;5075719;28;20533;-75
2021/04/03 01:31:56;;;;;;;19.43;2.17;;;6.60;76.50;;;;;;5093710;28;20024;-75
2021/04/03 01:34:25;;;;;;;11.93;1.57;;;6.70;76.80;;;;;;5093935;28;20031;-75
2021/04/03 01:36:57;;;;;;;16.03;2.13;;;6.70;76.80;;;;;;5093546;28;20020;-75
2021/04/03 01:39:26;;;;;;;15.33;1.73;;;6.60;76.80;;;;;;5093664;28;20028;-75
2021/04/03 01:41:54;;;;;;;10.13;1.67;;;6.60;76.90;;;;;;5076190;28;20062;-76
2021/04/03 01:44:24;;;;;;;19.90;1.93;;;6.60;76.90;;;;;;5093735;28;20360;-77
2021/04/03 01:46:52;;;;;;;10.37;2.37;;;6.60;76.90;;;;;;5093616;28;20032;-76
2021/04/03 01:49:23;;;;;;;13.50;1.77;;;6.60;76.80;;;;;;5093504;28;20050;-76
2021/04/03 01:51:49;;;;;;;19.10;2.00;;;6.60;76.80;;;;;;5075326;28;20467;-76
2021/04/03 01:54:16;;;;;;;15.10;1.47;;;6.60;76.80;;;;;;5093505;28;20088;-75
2021/04/03 01:56:44;;;;;;;14.77;2.67;;;6.60;76.80;;;;;;5075697;28;20085;-75
2021/04/03 01:59:11;;;;;;;17.27;2.07;;;6.60;77.00;;;;;;5093383;28;20024;-75
2021/04/03 02:01:42;;;;;;;15.27;2.40;;;6.60;76.90;;;;;;5075310;28;20028;-77
2021/04/03 02:04:10;;;;;;;12.50;1.43;;;6.60;76.70;;;;;;5093369;28;20095;-76
2021/04/03 02:06:39;;;;;;;15.40;2.27;;;6.60;76.70;;;;;;5093476;28;20119;-76
2021/04/03 02:09:08;;;;;;;16.60;2.37;;;6.60;76.60;;;;;;5093654;28;20048;-77
2021/04/03 02:11:35;;;;;;;14.73;2.13;;;6.70;76.50;;;;;;5075604;28;20032;-77
2021/04/03 02:14:03;;;;;;;11.07;2.00;;;6.70;76.30;;;;;;5093478;28;20352;-76
2021/04/03 02:16:30;;;;;;;17.23;1.87;;;6.70;76.10;;;;;;5075293;28;20399;-76
2021/04/03 02:18:57;;;;;;;16.20;2.73;;;6.70;75.80;;;;;;5075475;28;20024;-77
2021/04/03 02:21:24;;;;;;;11.70;2.00;;;6.70;75.70;;;;;;5058721;28;20032;-77
2021/04/03 02:23:51;;;;;;;9.20;1.23;;;6.70;75.50;;;;;;5096980;28;20028;-76
2021/04/03 02:26:16;;;;;;;18.07;2.50;;;6.70;75.30;;;;;;5079117;28;20036;-76
2021/04/03 02:28:42;;;;;;;11.73;1.73;;;6.70;75.10;;;;;;5062531;28;20532;-76
2021/04/03 02:31:08;;;;;;;13.40;1.60;;;6.70;75.00;;;;;;5097527;28;20040;-76
2021/04/03 02:33:33;;;;;;;13.63;1.53;;;6.70;74.60;;;;;;5097465;28;20040;-76
2021/04/03 02:35:59;;;;;;;16.13;2.30;;;6.80;74.50;;;;;;5078668;28;20036;-76
2021/04/03 02:38:25;;;;;;;16.00;2.03;;;6.70;74.30;;;;;;5097429;28;20024;-76
2021/04/03 02:40:51;;;;;;;13.70;1.80;;;6.80;74.30;;;;;;5097075;28;20422;-76
2021/04/03 02:43:33;;;;;;;16.83;2.27;;;6.70;74.10;;;;;;5096913;28;20399;-76
2021/04/03 02:46:10;;;;;;;14.43;2.43;;;6.70;74.00;;;;;;5097233;28;20036;-77
2021/04/03 02:48:39;;;;;;;15.60;1.97;;;6.70;73.60;;;;;;5096799;28;20486;-76
2021/04/03 02:51:07;;;;;;;9.43;1.87;;;6.70;73.50;;;;;;5096731;28;20031;-77
2021/04/03 02:53:33;;;;;;;15.87;2.20;;;6.70;73.30;;;;;;5096710;28;20375;-76
2021/04/03 02:56:02;;;;;;;11.67;1.67;;;6.70;73.10;;;;;;5096514;28;20052;-77
2021/04/03 02:58:32;;;;;;;16.00;1.80;;;6.80;73.20;;;;;;5078333;28;20056;-76
2021/04/03 03:00:58;;;;;;;13.03;2.07;;;6.70;73.00;;;;;;5096768;28;20032;-76
2021/04/03 03:03:25;;;;;;;16.70;1.63;;;6.70;73.00;;;;;;5096619;28;20404;-76
2021/04/03 03:05:56;;;;;;;13.60;1.80;;;6.70;72.90;;;;;;5096554;28;20066;-77
2021/04/03 03:08:22;;;;;;;13.57;1.50;;;6.70;72.90;;;;;;5096154;28;20046;-77
2021/04/03 03:10:49;;;;;;;19.10;2.37;;;6.70;73.00;;;;;;5096254;28;20055;-77
2021/04/03 03:13:18;;;;;;;14.30;2.23;;;6.70;73.00;;;;;;5078290;28;20044;-77
2021/04/03 03:15:44;;;;;;;13.90;1.63;;;6.60;73.10;;;;;;5096417;28;20024;-76
2021/04/03 03:18:10;;;;;;;11.77;1.60;;;6.60;73.10;;;;;;5096251;28;20032;-77
2021/04/03 03:20:36;;;;;;;16.13;2.10;;;6.60;73.10;;;;;;5061349;28;20024;-77
2021/04/03 03:23:02;;;;;;;18.73;2.20;;;6.60;73.10;;;;;;5096302;28;20044;-77
2021/04/03 03:25:28;;;;;;;11.17;1.80;;;6.60;73.30;;;;;;5096668;28;20028;-77
2021/04/03 03:27:55;;;;;;;13.53;2.20;;;6.50;73.20;;;;;;5078091;28;20055;-77
2021/04/03 03:30:22;;;;;;;14.53;2.03;;;6.50;73.20;;;;;;5061193;28;20043;-76
2021/04/03 03:32:48;;;;;;;23.03;3.13;;;6.50;73.30;;;;;;5096020;28;20032;-76
2021/04/03 03:35:15;;;;;;;18.83;2.33;;;6.40;73.30;;;;;;5094860;28;20082;-76
2021/04/03 03:37:44;;;;;;;17.27;3.00;;;6.40;73.60;;;;;;5077968;28;20035;-76
2021/04/03 03:40:13;;;;;;;18.67;2.50;;;6.30;73.90;;;;;;5096058;28;20031;-76
2021/04/03 03:42:39;;;;;;;16.40;2.70;;;6.20;74.00;;;;;;5077982;28;20078;-76
2021/04/03 03:45:07;;;;;;;19.90;2.77;;;6.20;74.40;;;;;;5077718;28;20040;-77
2021/04/03 03:47:32;;;;;;;13.30;2.57;;;6.10;74.40;;;;;;5095848;28;20421;-76
2021/04/03 03:49:58;;;;;;;15.53;2.20;;;6.10;74.70;;;;;;5095904;28;20056;-76
2021/04/03 03:52:24;;;;;;;19.57;2.10;;;6.10;74.80;;;;;;5077708;28;20040;-77
2021/04/03 03:54:49;;;;;;;20.80;2.37;;;6.00;74.80;;;;;;5095930;28;20078;-77
2021/04/03 03:57:15;;;;;;;20.37;3.53;;;6.00;75.50;;;;;;5077338;28;20039;-77
2021/04/03 03:59:41;;;;;;;25.67;3.47;;;5.90;75.30;;;;;;5077434;28;20017;-77
2021/04/03 04:02:06;;;;;;;17.77;3.13;;;5.90;75.30;;;;;;5060409;28;20039;-76
2021/04/03 04:04:32;;;;;;;18.53;2.53;;;5.90;75.60;;;;;;5056828;28;20031;-76
2021/04/03 04:06:58;;;;;;;20.33;2.77;;;5.80;75.70;;;;;;5056699;28;20056;-76
2021/04/03 04:09:25;;;;;;;12.83;2.20;;;5.70;75.90;;;;;;5074697;28;20056;-77
2021/04/03 04:11:50;;;;;;;13.60;2.30;;;5.70;76.00;;;;;;5057463;28;20081;-77
2021/04/03 04:14:16;;;;;;;23.60;3.33;;;5.70;76.10;;;;;;5057586;28;20116;-77
2021/04/03 04:16:43;;;;;;;19.90;2.57;;;5.60;76.50;;;;;;5074880;28;20482;-76
2021/04/03 04:19:09;;;;;;;23.07;3.13;;;5.60;76.70;;;;;;5075301;28;20386;-77
2021/04/03 04:21:34;;;;;;;20.70;2.73;;;5.60;76.70;;;;;;5075082;28;20040;-77
2021/04/03 04:24:00;;;;;;;22.93;2.70;;;5.50;76.80;;;;;;5074933;28;20029;-76
2021/04/03 04:26:25;;;;;;;20.73;3.80;;;5.40;77.10;;;;;;5074849;28;20043;-77
2021/04/03 04:28:51;;;;;;;24.40;2.77;;;5.40;77.30;;;;;;5074791;28;20360;-76
2021/04/03 04:31:17;;;;;;;19.63;2.60;;;5.40;77.50;;;;;;5040398;28;20543;-78
2021/04/03 04:33:42;;;;;;;22.17;2.67;;;5.30;77.60;;;;;;5056802;28;20075;-77
2021/04/03 04:36:08;;;;;;;18.43;2.23;;;5.30;77.80;;;;;;5039767;28;20461;-77
2021/04/03 04:38:33;;;;;;;24.13;3.37;;;5.30;78.00;;;;;;5039974;28;20086;-77
2021/04/03 04:40:59;;;;;;;17.90;2.70;;;5.30;78.00;;;;;;5056632;28;20127;-77
2021/04/03 04:43:25;;;;;;;19.33;2.60;;;5.20;78.20;;;;;;5074609;28;20025;-77
2021/04/03 04:45:51;;;;;;;21.40;3.13;;;5.20;78.20;;;;;;5056794;28;20039;-78
2021/04/03 04:48:17;;;;;;;14.77;2.27;;;5.20;78.30;;;;;;5074429;28;20028;-77
2021/04/03 04:50:42;;;;;;;22.63;3.10;;;5.20;78.50;;;;;;5074481;28;20386;-77
2021/04/03 04:53:08;;;;;;;19.20;3.10;;;5.10;78.60;;;;;;5056196;28;20040;-77
2021/04/03 04:55:34;;;;;;;19.77;2.40;;;5.10;78.70;;;;;;5074104;28;20037;-77
2021/04/03 04:58:01;;;;;;;21.00;3.40;;;5.00;78.80;;;;;;5075848;28;20062;-77
2021/04/03 05:00:27;;;;;;;20.47;3.13;;;5.00;79.00;;;;;;5073664;28;20036;-77
2021/04/03 05:02:52;;;;;;;20.73;3.00;;;5.00;79.20;;;;;;5073527;28;20029;-77
2021/04/03 05:05:18;;;;;;;19.40;2.77;;;5.00;79.40;;;;;;5074145;28;20037;-77
2021/04/03 05:07:44;;;;;;;19.83;2.93;;;4.90;80.10;;;;;;5022995;28;20037;-76
2021/04/03 05:10:11;;;;;;;21.70;2.40;;;4.90;79.60;;;;;;5055954;28;20056;-76
2021/04/03 05:12:36;;;;;;;15.97;3.47;;;4.90;79.80;;;;;;5073717;28;20060;-76
2021/04/03 05:15:02;;;;;;;26.70;3.77;;;4.80;79.80;;;;;;5073935;28;20098;-77
2021/04/03 05:17:28;;;;;;;17.30;3.03;;;4.80;80.20;;;;;;5055884;28;20417;-77
2021/04/03 05:19:54;;;;;;;23.20;3.53;;;4.80;80.50;;;;;;5073914;28;20111;-77
2021/04/03 05:22:19;;;;;;;23.93;3.67;;;4.80;80.70;;;;;;5056199;28;20034;-77
2021/04/03 05:24:45;;;;;;;22.87;3.10;;;4.90;81.00;;;;;;5055787;28;20020;-77
2021/04/03 05:27:10;;;;;;;16.97;3.20;;;4.90;81.20;;;;;;5055835;28;20383;-77
2021/04/03 05:29:36;;;;;;;20.93;2.63;;;4.90;81.30;;;;;;5055998;28;20032;-77
2021/04/03 05:32:02;;;;;;;22.20;2.53;;;5.00;82.20;;;;;;5055546;28;20540;-77
2021/04/03 05:34:27;;;;;;;28.60;2.80;;;5.00;81.70;;;;;;5038974;28;20059;-77
2021/04/03 05:36:53;;;;;;;26.53;3.60;;;5.00;81.80;;;;;;5055558;28;20028;-77
2021/04/03 05:39:19;;;;;;;22.50;3.53;;;5.10;81.90;;;;;;5073425;28;20070;-77
2021/04/03 05:41:44;;;;;;;23.83;3.33;;;5.10;82.00;;;;;;5073686;28;20029;-77
2021/04/03 05:44:10;;;;;;;20.70;3.60;;;5.20;82.10;;;;;;5022630;28;20028;-78
2021/04/03 05:46:39;;;;;;;27.07;3.40;;;5.20;82.10;;;;;;5073802;28;20039;-77
2021/04/03 05:49:06;;;;;;;17.73;2.70;;;5.30;82.20;;;;;;5055810;28;20033;-77
2021/04/03 05:51:31;;;;;;;24.33;3.03;;;5.30;82.20;;;;;;5055897;28;20154;-77
2021/04/03 05:54:01;;;;;;;18.57;3.20;;;5.30;82.20;;;;;;5055389;28;20047;-77
2021/04/03 05:56:30;;;;;;;23.83;3.57;;;5.50;82.30;;;;;;5055200;28;20044;-77
2021/04/03 05:58:56;;;;;;;19.73;2.93;;;5.50;82.40;;;;;;5073197;28;20029;-76
2021/04/03 06:01:22;;;;;;;28.20;3.97;;;5.60;82.50;;;;;;5055233;28;20028;-77
2021/04/03 06:03:48;;;;;;;22.37;3.13;;;5.70;82.50;;;;;;5073205;28;20047;-77
2021/04/03 06:06:14;;;;;;;22.67;3.63;;;5.70;82.40;;;;;;5073114;28;20056;-77
2021/04/03 06:08:40;;;;;;;28.27;3.47;;;5.80;82.90;;;;;;5055055;28;20572;-77
2021/04/03 06:11:19;;;;;;;24.23;2.97;;;5.80;83.00;;;;;;5073097;28;20025;-76
2021/04/03 06:14:00;;;;;;;33.37;4.30;;;5.90;82.80;;;;;;5073312;28;20016;-77
2021/04/03 06:16:29;;;;;;;30.27;4.27;;;5.90;83.60;;;;;;5076100;28;20024;-77
2021/04/03 06:19:22;;;;;;;24.03;4.17;;;6.00;83.50;;;;;;5091469;28;20081;-76
2021/04/03 06:21:55;;;;;;;30.50;4.20;;;6.00;83.10;;;;;;5074419;28;20024;-75
2021/04/03 06:24:36;;;;;;;29.03;5.00;;;6.10;83.70;;;;;;5091099;28;20012;-76
2021/04/03 06:27:02;;;;;;;33.57;5.27;;;6.10;83.40;;;;;;5093282;28;20024;-76
2021/04/03 06:29:39;;;;;;;24.67;3.97;;;6.10;83.50;;;;;;5093238;28;20373;-76
2021/04/03 06:32:20;;;;;;;32.17;4.57;;;6.20;83.10;;;;;;5093353;28;20093;-76
2021/04/03 06:34:48;;;;;;;25.73;4.03;;;6.20;83.20;;;;;;5092942;28;20458;-76
2021/04/03 06:37:13;;;;;;;26.27;4.00;;;6.20;83.10;;;;;;5092993;28;20387;-76
2021/04/03 06:39:56;;;;;;;34.37;5.33;;;6.30;83.40;;;;;;5093497;28;20028;-77
2021/04/03 06:42:44;;;;;;;36.30;4.77;;;6.30;83.10;;;;;;5078388;28;20020;-77
2021/04/03 06:45:23;;;;;;;27.13;3.93;;;6.40;83.30;;;;;;5099603;28;20431;-76
2021/04/03 06:48:03;;;;;;;27.33;5.13;;;6.40;83.50;;;;;;5076389;28;20380;-77
2021/04/03 06:50:33;;;;;;;32.03;4.90;;;6.50;83.50;;;;;;5075384;28;20042;-76
2021/04/03 06:53:05;;;;;;;29.53;4.30;;;6.50;83.60;;;;;;5093380;28;20027;-78
2021/04/03 06:55:31;;;;;;;23.47;5.23;;;6.50;83.40;;;;;;5068559;28;20020;-75
2021/04/03 06:57:57;;;;;;;31.53;4.20;;;6.60;83.60;;;;;;5079017;28;20030;-77
2021/04/03 07:00:26;;;;;;;26.30;4.50;;;6.70;83.50;;;;;;5074889;28;20464;-79
2021/04/03 07:03:15;;;;;;;38.03;5.30;;;6.70;83.10;;;;;;5091744;28;20044;-77
2021/04/03 07:05:43;;;;;;;26.50;5.13;;;6.70;83.30;;;;;;5092706;28;20030;-78
2021/04/03 07:08:09;;;;;;;28.53;5.90;;;6.80;82.90;;;;;;5092283;28;20024;-78
2021/04/03 07:10:37;;;;;;;24.73;3.77;;;6.90;82.80;;;;;;5095526;28;20484;-77
2021/04/03 07:13:04;;;;;;;32.50;5.20;;;6.90;82.50;;;;;;5095896;28;20028;-78
2021/04/03 07:15:30;;;;;;;23.57;4.50;;;7.00;82.30;;;;;;5077963;28;20487;-78
2021/04/03 07:17:56;;;;;;;34.30;4.33;;;7.10;82.20;;;;;;5078540;28;20062;-78
2021/04/03 07:20:24;;;;;;;29.93;3.60;;;7.10;82.00;;;;;;5096596;28;20024;-78
2021/04/03 07:22:56;;;;;;;31.73;4.73;;;7.20;81.80;;;;;;5096393;28;20020;-78
2021/04/03 07:25:26;;;;;;;32.33;4.70;;;7.30;81.70;;;;;;5078328;28;20024;-78
2021/04/03 07:27:52;;;;;;;19.77;3.57;;;7.40;81.40;;;;;;5096121;28;20107;-77
2021/04/03 07:30:48;;;;;;;22.97;4.13;;;7.50;81.00;;;;;;5088143;28;20111;-77
2021/04/03 07:33:23;;;;;;;25.77;3.80;;;7.60;80.80;;;;;;5075163;28;20441;-78
2021/04/03 07:35:51;;;;;;;21.43;3.77;;;7.70;80.30;;;;;;5077625;28;20455;-78
2021/04/03 07:38:26;;;;;;;21.40;4.40;;;7.70;79.60;;;;;;5077811;28;20020;-78
2021/04/03 07:41:15;;;;;;;20.37;5.23;;;7.80;79.20;;;;;;5096508;28;20026;-77
2021/04/03 07:43:48;;;;;;;28.40;4.87;;;7.80;79.00;;;;;;5077754;28;20016;-78
2021/04/03 07:46:19;;;;;;;32.77;4.07;;;7.90;78.80;;;;;;5095893;28;20488;-78
2021/04/03 07:48:53;;;;;;;26.43;4.80;;;8.00;78.70;;;;;;5095807;28;20038;-78
2021/04/03 07:51:22;;;;;;;;;;;8.10;78.60;;;;;;5095837;28;20376;-78
2021/04/03 07:53:48;;;;;;;20.03;3.17;;;8.20;78.40;;;;;;5094235;28;19908;-78
2021/04/03 07:56:20;;;;;;;27.43;4.83;;;8.30;78.00;;;;;;5077224;28;20467;-78
2021/04/03 07:58:48;;;;;;;17.10;3.80;;;8.40;78.10;;;;;;5095627;28;20451;-72
2021/04/03 08:01:16;;;;;;;20.57;4.37;;;8.50;77.10;;;;;;5057856;28;20025;-72
2021/04/03 08:03:41;;;;;;;25.07;3.73;;;8.60;76.70;;;;;;5077425;28;20028;-72
2021/04/03 08:06:09;;;;;;;22.57;4.03;;;8.70;76.30;;;;;;5060927;28;20477;-72
2021/04/03 08:08:39;;;;;;;19.43;3.40;;;8.80;75.90;;;;;;5077853;28;20067;-73
2021/04/03 08:11:13;;;;;;;18.03;3.87;;;8.80;75.60;;;;;;5094734;28;20501;-72
2021/04/03 08:13:40;;;;;;;;;;;8.90;75.50;;;;;;5095122;28;20463;-72
2021/04/03 08:16:09;;;;;;;21.90;4.07;;;9.00;75.20;;;;;;5094371;28;19912;-72
2021/04/03 08:18:36;;;;;;;16.97;3.77;;;9.10;74.80;;;;;;5076321;28;20024;-72
2021/04/03 08:21:02;;;;;;;22.93;3.63;;;9.30;74.80;;;;;;5092482;28;20024;-72
2021/04/03 08:23:38;;;;;;;20.10;3.67;;;9.40;74.50;;;;;;5060033;28;20035;-72
2021/04/03 08:26:05;;;;;;;21.70;3.37;;;9.60;74.30;;;;;;5095194;28;20122;-72
2021/04/03 08:28:32;;;;;;;20.57;4.30;;;9.60;74.00;;;;;;5056884;28;20593;-72
2021/04/03 08:31:11;;;;;;;21.07;3.53;;;9.70;73.80;;;;;;5056701;28;20032;-73
2021/04/03 08:33:36;;;;;;;25.20;4.40;;;9.90;73.10;;;;;;5073148;28;20103;-72
2021/04/03 08:36:10;;;;;;;25.03;4.30;;;9.90;72.30;;;;;;5039797;28;20112;-72
2021/04/03 08:38:36;;;;;;;16.77;2.95;;;10.00;72.20;;;;;;5074642;28;20382;-71
2021/04/03 08:41:02;;;;;;;22.80;4.13;;;10.00;71.40;;;;;;5059934;28;20118;-72
2021/04/03 08:43:28;;;;;;;19.20;3.43;;;10.10;71.00;;;;;;5094468;28;20476;-72
2021/04/03 08:46:00;;;;;;;16.10;2.40;;;10.20;71.00;;;;;;5039707;28;20029;-72
2021/04/03 08:48:31;;;;;;;21.37;4.00;;;10.30;70.80;;;;;;5056492;28;20029;-72
2021/04/03 08:50:57;;;;;;;20.53;3.40;;;10.30;69.60;;;;;;5056507;28;20488;-72
2021/04/03 08:53:23;;;;;;;16.60;3.53;;;10.50;69.70;;;;;;5056589;28;20031;-72
2021/04/03 08:55:48;;;;;;;18.77;3.30;;;10.60;69.40;;;;;;5042050;28;20020;-72
2021/04/03 08:58:14;;;;;;;19.00;3.17;;;10.70;68.30;;;;;;5055885;28;20033;-72
2021/04/03 09:00:41;;;;;;;16.53;2.60;;;10.80;67.90;;;;;;5039390;28;20049;-72
2021/04/03 09:03:07;;;;;;;16.27;3.50;;;10.90;67.90;;;;;;5074259;28;20543;-72
2021/04/03 09:05:33;;;;;;;22.37;3.53;;;11.00;66.80;;;;;;5059324;28;20024;-72
2021/04/03 09:07:59;;;;;;;20.63;3.87;;;11.10;66.40;;;;;;5075886;28;20032;-72
2021/04/03 09:10:25;;;;;;;17.53;3.30;;;11.20;66.30;;;;;;5042826;28;20028;-72
2021/04/03 09:12:52;;;;;;;22.90;3.37;;;11.30;65.50;;;;;;5059601;28;20028;-72
2021/04/03 09:15:30;;;;;;;21.20;4.03;;;11.50;65.30;;;;;;5059588;28;20111;-72
2021/04/03 09:17:58;;;;;;;20.73;3.40;;;11.60;65.40;;;;;;5076153;28;20148;-72
2021/04/03 09:20:29;;;;;;;17.83;3.80;;;11.70;65.50;;;;;;5059111;28;20136;-72
2021/04/03 09:23:06;;;;;;;20.83;3.92;;;11.90;65.40;;;;;;5071951;28;20031;-72
2021/04/03 09:25:32;;;;;;;15.07;3.35;;;12.10;64.80;;;;;;5093110;28;20023;-72
2021/04/03 09:28:02;;;;;;;19.95;3.58;;;12.20;64.00;;;;;;5072422;28;20032;-72
2021/04/03 09:30:45;;;;;;;23.35;3.80;;;12.30;63.70;;;;;;5069226;28;20173;-72
2021/04/03 09:33:15;;;;;;;20.83;3.37;;;12.30;63.20;;;;;;5093244;28;20039;-72
2021/04/03 09:35:41;;;;;;;17.58;2.85;;;12.30;61.70;;;;;;5075702;28;20132;-72
2021/04/03 09:38:07;;;;;;;16.50;3.22;;;12.40;60.60;;;;;;5075862;28;20035;-73
2021/04/03 09:40:39;;;;;;;20.38;3.97;;;12.40;60.30;;;;;;5093712;28;20020;-72
2021/04/03 09:43:05;;;;;;;15.75;3.05;;;12.30;60.00;;;;;;5093922;28;20095;-72
2021/04/03 09:45:31;;;;;;;16.75;3.35;;;12.40;59.60;;;;;;5093951;28;20103;-72
2021/04/03 09:47:58;;;;;;;19.10;3.00;;;12.60;59.70;;;;;;5075497;28;20555;-72
2021/04/03 09:50:25;;;;;;;17.33;3.17;;;12.70;59.70;;;;;;5075485;28;20024;-72
2021/04/03 09:52:52;;;;;;;17.02;2.80;;;12.80;58.90;;;;;;5075886;28;20448;-72
2021/04/03 09:55:19;;;;;;;19.08;3.65;;;12.90;58.30;;;;;;5082519;28;20406;-72
2021/04/03 09:57:45;;;;;;;17.20;2.97;;;12.90;58.10;;;;;;5073081;28;20056;-72
2021/04/03 10:00:11;;;;;;;17.42;2.83;;;12.90;58.10;;;;;;5055351;28;20424;-72
2021/04/03 10:02:37;;;;;;;14.82;2.80;;;13.00;57.80;;;;;;5054577;28;20055;-73
2021/04/03 10:05:04;;;;;;;12.82;3.15;;;13.00;57.80;;;;;;5054939;28;20392;-73
2021/04/03 10:07:29;;;;;;;17.40;3.20;;;13.20;58.00;;;;;;5072964;28;20528;-72
2021/04/03 10:09:55;;;;;;;15.45;2.55;;;13.30;57.50;;;;;;5071048;28;20135;-72
2021/04/03 10:12:21;;;;;;;17.55;2.75;;;13.40;57.30;;;;;;5075508;28;20475;-72
2021/04/03 10:14:46;;;;;;;15.63;2.70;;;13.50;56.70;;;;;;5075363;28;20143;-72
2021/04/03 10:17:12;;;;;;;12.77;2.47;;;13.90;56.30;;;;;;5075262;28;20099;-72
2021/04/03 10:19:38;;;;;;;19.60;3.50;;;14.30;56.20;;;;;;5075131;28;20059;-71
2021/04/03 10:22:04;;;;;;;15.18;3.38;;;14.60;55.10;;;;;;5054558;28;20021;-72
2021/04/03 10:24:29;;;;;;;20.17;3.08;;;14.70;54.90;;;;;;5039101;28;20431;-72
2021/04/03 10:26:55;;;;;;;18.17;3.03;;;14.70;53.40;;;;;;5055051;28;20037;-73
2021/04/03 10:29:20;;;;;;;13.75;2.55;;;14.50;53.20;;;;;;5038693;28;20040;-72
2021/04/03 10:31:46;;;;;;;18.90;3.08;;;14.30;53.10;;;;;;5055333;28;20087;-72
2021/04/03 10:34:12;;;;;;;15.10;2.50;;;14.30;53.30;;;;;;5055205;28;20066;-72
2021/04/03 10:36:37;;;;;;;16.15;3.47;;;14.30;53.10;;;;;;5038307;28;20028;-72
2021/04/03 10:39:04;;;;;;;12.98;2.55;;;14.20;53.10;;;;;;5073246;28;20020;-73
2021/04/03 10:41:31;;;;;;;12.88;2.47;;;14.50;53.30;;;;;;5093021;28;20497;-72
2021/04/03 10:43:56;;;;;;;13.90;2.22;;;14.60;53.00;;;;;;5076848;28;20031;-72
2021/04/03 10:46:22;;;;;;;10.88;2.75;;;15.10;53.70;;;;;;5078588;28;20095;-72
2021/04/03 10:48:48;;;;;;;11.90;2.53;;;16.10;53.60;;;;;;5061951;28;20031;-73
2021/04/03 10:51:13;;;;;;;15.45;2.45;;;17.00;51.30;;;;;;5061647;28;20036;-71
2021/04/03 10:53:39;;;;;;;10.02;2.17;;;17.40;49.70;;;;;;5077932;28;20039;-72
2021/04/03 10:56:05;;;;;;;7.72;1.75;;;17.30;48.00;;;;;;5096547;28;20056;-73
2021/04/03 10:58:31;;;;;;;15.77;3.25;;;17.10;47.20;;;;;;5078583;28;20026;-71
2021/04/03 11:00:56;;;;;;;12.57;2.85;;;16.80;46.50;;;;;;5078733;28;20112;-71
2021/04/03 11:03:22;;;;;;;15.95;3.50;;;16.70;47.10;;;;;;5078561;28;20047;-70
2021/04/03 11:05:48;;;;;;;11.32;2.45;;;16.60;46.90;;;;;;5078081;28;20032;-70
2021/04/03 11:08:13;;;;;;;14.82;2.67;;;17.00;47.50;;;;;;5096030;28;20381;-72
2021/04/03 11:10:39;;;;;;;15.02;2.90;;;17.80;46.90;;;;;;5078317;28;20062;-72
2021/04/03 11:13:05;;;;;;;14.48;2.53;;;18.60;46.10;;;;;;5095818;28;20054;-73
2021/04/03 11:15:30;;;;;;;11.43;2.35;;;19.40;45.50;;;;;;5078024;28;20431;-72
2021/04/03 11:17:56;;;;;;;16.40;2.63;;;20.00;43.80;;;;;;5077266;28;20054;-72
2021/04/03 11:20:22;;;;;;;13.77;2.72;;;20.10;42.30;;;;;;5095955;28;20077;-71
2021/04/03 11:22:48;;;;;;;11.95;2.65;;;20.00;42.00;;;;;;5096016;28;20169;-71
2021/04/03 11:25:14;;;;;;;13.23;2.45;;;20.30;42.20;;;;;;5077759;28;20024;-73
2021/04/03 11:27:40;;;;;;;12.57;2.45;;;20.80;41.10;;;;;;5077411;28;20021;-72
2021/04/03 11:30:13;;;;;;;11.00;2.50;;;21.10;40.30;;;;;;5077342;28;20025;-75
2021/04/03 11:32:41;;;;;;;12.18;2.50;;;21.40;39.30;;;;;;5095513;28;20047;-73
2021/04/03 11:35:07;;;;;;;13.75;3.22;;;21.30;38.80;;;;;;5057139;28;20020;-74
2021/04/03 11:37:33;;;;;;;12.65;2.47;;;21.00;37.70;;;;;;5057582;28;20032;-75
2021/04/03 11:40:00;;;;;;;10.98;1.85;;;21.00;38.10;;;;;;5075816;28;20024;-75
2021/04/03 11:42:26;;;;;;;12.65;2.67;;;20.80;38.00;;;;;;5058024;28;20463;-75
2021/04/03 11:44:52;;;;;;;14.55;2.65;;;20.60;37.40;;;;;;5077170;28;20111;-75
2021/04/03 11:47:17;;;;;;;11.40;2.60;;;20.60;37.80;;;;;;5077452;28;20039;-74
2021/04/03 11:49:43;;;;;;;14.68;2.55;;;20.90;37.50;;;;;;5095209;28;20034;-75
2021/04/03 11:52:09;;;;;;;11.02;2.17;;;21.10;37.30;;;;;;5095328;28;20036;-75
2021/04/03 11:54:34;;;;;;;9.45;2.30;;;21.40;37.30;;;;;;5059892;28;20422;-75
2021/04/03 11:57:00;;;;;;;12.77;2.25;;;22.00;37.10;;;;;;5076419;28;20069;-75
2021/04/03 11:59:26;;;;;;;12.52;2.33;;;22.40;36.40;;;;;;5076669;28;20100;-76
2021/04/03 12:01:51;;;;;;;12.10;2.63;;;22.70;35.80;;;;;;5077224;28;20031;-75
2021/04/03 12:04:17;;;;;;;11.57;2.38;;;22.90;35.90;;;;;;5095431;28;20456;-75
2021/04/03 12:06:43;;;;;;;11.55;2.97;;;23.00;35.10;;;;;;5043440;28;20032;-74
2021/04/03 12:09:08;;;;;;;11.23;2.47;;;23.00;34.20;;;;;;5094893;28;20078;-76
2021/04/03 12:11:34;;;;;;;12.05;2.42;;;23.30;33.90;;;;;;5060469;28;20050;-78
2021/04/03 12:14:00;;;;;;;12.98;2.05;;;23.80;33.90;;;;;;5077061;28;20093;-78
2021/04/03 12:16:25;;;;;;;14.90;2.80;;;24.30;33.60;;;;;;5056604;28;20414;-79
2021/04/03 12:18:51;;;;;;;12.18;2.45;;;24.30;33.00;;;;;;5074808;28;20028;-79
2021/04/03 12:21:17;;;;;;;11.93;2.63;;;23.90;32.70;;;;;;5056557;28;20042;-77
2021/04/03 12:23:43;;;;;;;12.70;2.42;;;23.80;32.80;;;;;;5067124;28;20024;-77
2021/04/03 12:26:08;;;;;;;15.00;2.60;;;23.90;32.60;;;;;;5076590;28;20032;-77
2021/04/03 12:28:34;;;;;;;9.35;2.53;;;24.30;32.40;;;;;;5094149;28;20032;-77
2021/04/03 12:30:59;;;;;;;8.85;2.30;;;24.60;31.80;;;;;;5076363;28;20053;-77
2021/04/03 12:33:25;;;;;;;6.78;2.03;;;25.00;31.00;;;;;;5094898;28;20095;-78
2021/04/03 12:35:51;;;;;;;9.98;2.00;;;25.40;31.30;;;;;;5077012;28;20032;-78
2021/04/03 12:38:16;;;;;;;10.23;2.65;;;25.90;31.40;;;;;;5059046;28;20067;-78
2021/04/03 12:40:42;;;;;;;11.63;2.22;;;26.30;30.40;;;;;;5056108;28;20350;-78
2021/04/03 12:43:07;;;;;;;14.35;2.55;;;26.30;29.60;;;;;;5074447;28;20024;-78
2021/04/03 12:45:33;;;;;;;9.32;2.03;;;25.70;29.30;;;;;;5041391;28;20028;-77
2021/04/03 12:47:59;;;;;;;9.52;2.22;;;25.10;30.00;;;;;;5056771;28;20107;-77
2021/04/03 12:50:25;;;;;;;13.13;3.00;;;24.50;29.80;;;;;;5039963;28;20052;-77